createdAt,value
2023-04-15T00:00:58.590Z,6.23
2023-04-15T00:03:25.606Z,6.18
2023-04-15T00:05:52.257Z,6.21
2023-04-15T00:08:19.457Z,6.05
2023-04-15T00:10:46.815Z,6.01
2023-04-15T00:13:13.416Z,6.08
2023-04-15T00:15:39.924Z,5.93
2023-04-15T00:18:08.231Z,6.06
2023-04-15T00:20:35.483Z,6.10
2023-04-15T00:23:04.010Z,5.95
2023-04-15T00:25:30.885Z,6.03
2023-04-15T00:27:57.376Z,5.96
2023-04-15T00:30:23.986Z,5.95
2023-04-15T00:32:50.849Z,6.04
2023-04-15T00:35:17.479Z,5.98
2023-04-15T00:37:46.042Z,5.91
2023-04-15T00:40:13.695Z,6.01
2023-04-15T00:42:40.322Z,5.94
2023-04-15T00:45:08.737Z,5.77
2023-04-15T00:47:37.607Z,5.68
2023-04-15T00:50:04.994Z,5.53
2023-04-15T00:52:31.991Z,5.57
2023-04-15T00:54:58.968Z,5.50
2023-04-15T00:57:27.157Z,5.49
2023-04-15T00:59:54.765Z,5.48
2023-04-15T01:02:21.891Z,5.36
2023-04-15T01:04:48.825Z,5.32
2023-04-15T01:07:15.304Z,5.31
2023-04-15T01:09:42.324Z,5.21
2023-04-15T01:12:11.987Z,5.34
2023-04-15T01:14:38.680Z,5.28
2023-04-15T01:17:05.130Z,5.33
2023-04-15T01:19:31.686Z,5.19
2023-04-15T01:21:58.212Z,5.23
2023-04-15T01:24:28.084Z,5.27
2023-04-15T01:26:54.577Z,5.22
2023-04-15T01:29:21.364Z,5.31
2023-04-15T01:31:55.961Z,5.24
2023-04-15T01:34:22.528Z,5.26
2023-04-15T01:36:51.913Z,5.27
2023-04-15T01:39:18.355Z,5.19
2023-04-15T01:41:44.853Z,5.16
2023-04-15T01:44:11.629Z,5.22
2023-04-15T01:46:40.732Z,5.17
2023-04-15T01:49:07.667Z,4.72
2023-04-15T01:51:34.252Z,4.90
2023-04-15T01:54:00.689Z,4.87
2023-04-15T01:56:27.126Z,4.98
2023-04-15T01:58:53.653Z,4.87
2023-04-15T02:01:20.754Z,4.95
2023-04-15T02:03:48.047Z,4.99
2023-04-15T02:06:14.864Z,5.06
2023-04-15T02:08:41.339Z,4.97
2023-04-15T02:11:08.371Z,5.09
2023-04-15T02:13:34.978Z,5.07
2023-04-15T02:16:01.436Z,4.97
2023-04-15T02:18:27.842Z,4.97
2023-04-15T02:20:54.390Z,4.91
2023-04-15T02:23:20.822Z,4.94
2023-04-15T02:25:53.432Z,4.90
2023-04-15T02:28:21.529Z,4.84
2023-04-15T02:30:52.471Z,4.85
2023-04-15T02:33:19.288Z,4.72
2023-04-15T02:35:45.834Z,4.77
2023-04-15T02:38:14.167Z,4.76
2023-04-15T02:40:40.918Z,4.73
2023-04-15T02:43:07.695Z,4.60
2023-04-15T02:45:34.368Z,4.59
2023-04-15T02:48:06.158Z,4.58
2023-04-15T02:50:33.022Z,4.58
2023-04-15T02:53:01.260Z,4.59
2023-04-15T02:55:28.255Z,4.49
2023-04-15T02:57:54.759Z,4.46
2023-04-15T03:00:21.696Z,4.50
2023-04-15T03:02:49.897Z,4.41
2023-04-15T03:05:16.601Z,4.35
2023-04-15T03:07:43.054Z,4.34
2023-04-15T03:10:10.544Z,4.33
2023-04-15T03:12:36.987Z,4.29
2023-04-15T03:15:03.776Z,4.17
2023-04-15T03:17:30.382Z,4.22
2023-04-15T03:19:56.841Z,4.17
2023-04-15T03:22:23.284Z,4.14
2023-04-15T03:24:49.867Z,4.01
2023-04-15T03:27:16.322Z,4.00
2023-04-15T03:29:42.987Z,3.95
2023-04-15T03:32:09.397Z,3.85
2023-04-15T03:34:36.059Z,3.89
2023-04-15T03:37:02.494Z,3.82
2023-04-15T03:39:28.950Z,3.74
2023-04-15T03:41:56.399Z,3.81
2023-04-15T03:44:22.847Z,3.78
2023-04-15T03:46:49.414Z,3.85
2023-04-15T03:49:16.307Z,3.79
2023-04-15T03:51:42.798Z,3.80
2023-04-15T03:54:09.258Z,3.74
2023-04-15T03:56:35.908Z,3.69
2023-04-15T03:59:02.643Z,3.61
2023-04-15T04:01:29.451Z,3.71
2023-04-15T04:03:56.086Z,3.83
2023-04-15T04:06:22.789Z,3.75
2023-04-15T04:08:49.263Z,3.89
2023-04-15T04:11:16.276Z,3.92
2023-04-15T04:13:42.716Z,3.71
2023-04-15T04:16:09.253Z,3.95
2023-04-15T04:18:36.068Z,3.84
2023-04-15T04:21:02.718Z,3.91
2023-04-15T04:23:29.257Z,3.70
2023-04-15T04:25:55.765Z,3.88
2023-04-15T04:28:22.343Z,3.89
2023-04-15T04:30:48.924Z,3.70
2023-04-15T04:33:15.398Z,3.76
2023-04-15T04:35:42.028Z,3.83
2023-04-15T04:38:08.674Z,3.81
2023-04-15T04:40:35.260Z,3.89
2023-04-15T04:43:01.790Z,3.78
2023-04-15T04:45:28.371Z,3.86
2023-04-15T04:47:55.734Z,4.03
2023-04-15T04:50:22.553Z,3.97
2023-04-15T04:52:49.111Z,3.89
2023-04-15T04:55:15.967Z,4.16
2023-04-15T04:57:42.512Z,4.16
2023-04-15T05:00:09.793Z,4.01
2023-04-15T05:02:36.806Z,4.27
2023-04-15T05:05:03.598Z,4.26
2023-04-15T05:07:30.029Z,4.28
2023-04-15T05:09:56.674Z,4.29
2023-04-15T05:12:23.458Z,4.40
2023-04-15T05:14:50.019Z,4.18
2023-04-15T05:17:16.520Z,4.41
2023-04-15T05:19:42.962Z,4.18
2023-04-15T05:22:09.591Z,4.54
2023-04-15T05:24:36.453Z,4.43
2023-04-15T05:27:03.006Z,4.53
2023-04-15T05:29:29.580Z,4.69
2023-04-15T05:31:56.742Z,4.48
2023-04-15T05:34:23.262Z,4.49
2023-04-15T05:36:49.729Z,4.83
2023-04-15T05:39:16.179Z,4.77
2023-04-15T05:41:42.671Z,5.02
2023-04-15T05:44:09.276Z,4.83
2023-04-15T05:46:35.909Z,5.11
2023-04-15T05:49:02.495Z,5.09
2023-04-15T05:51:29.672Z,5.01
2023-04-15T05:53:56.379Z,5.10
2023-04-15T05:56:22.924Z,5.21
2023-04-15T05:58:53.820Z,5.37
2023-04-15T06:01:20.721Z,5.22
2023-04-15T06:03:47.352Z,5.37
2023-04-15T06:06:14.378Z,5.47
2023-04-15T06:08:41.108Z,5.34
2023-04-15T06:11:07.562Z,5.44
2023-04-15T06:13:35.150Z,5.48
2023-04-15T06:16:01.844Z,5.47
2023-04-15T06:18:28.304Z,5.65
2023-04-15T06:20:54.847Z,5.60
2023-04-15T06:23:21.467Z,5.81
2023-04-15T06:25:48.173Z,5.88
2023-04-15T06:28:14.636Z,5.85
2023-04-15T06:30:41.149Z,5.89
2023-04-15T06:33:07.771Z,6.02
2023-04-15T06:35:34.376Z,6.09
2023-04-15T06:38:00.939Z,6.17
2023-04-15T06:40:27.845Z,6.35
2023-04-15T06:42:55.639Z,6.44
2023-04-15T06:45:22.358Z,6.41
2023-04-15T06:47:48.869Z,6.45
2023-04-15T06:50:15.390Z,6.74
2023-04-15T06:52:42.368Z,6.83
2023-04-15T06:55:08.954Z,6.83
2023-04-15T06:57:36.042Z,6.75
2023-04-15T07:00:05.742Z,6.83
2023-04-15T07:02:32.455Z,6.85
2023-04-15T07:04:59.262Z,7.13
2023-04-15T07:07:26.450Z,7.00
2023-04-15T07:09:53.836Z,6.89
2023-04-15T07:12:20.977Z,6.64
2023-04-15T07:14:47.779Z,6.96
2023-04-15T07:17:36.113Z,6.49
2023-04-15T07:20:04.708Z,7.11
2023-04-15T07:22:33.912Z,7.26
2023-04-15T07:25:01.168Z,7.61
2023-04-15T07:27:27.803Z,7.78
2023-04-15T07:30:00.747Z,7.96
2023-04-15T07:34:10.496Z,7.89
2023-04-15T07:35:57.303Z,8.06
2023-04-15T07:38:26.878Z,8.08
2023-04-15T07:40:56.776Z,8.02
2023-04-15T07:44:22.631Z,8.03
2023-04-15T07:46:50.459Z,8.41
2023-04-15T07:49:19.352Z,7.99
2023-04-15T07:51:46.008Z,8.38
2023-04-15T07:58:10.746Z,8.64
2023-04-15T08:00:38.572Z,8.24
2023-04-15T08:14:50.986Z,9.06
2023-04-15T08:21:34.152Z,8.59
2023-04-15T08:24:01.731Z,8.70
2023-04-15T08:26:28.648Z,9.01
2023-04-15T08:29:30.610Z,9.19
2023-04-15T08:31:57.482Z,8.68
2023-04-15T08:38:09.635Z,8.92
2023-04-15T08:40:43.253Z,8.89
2023-04-15T08:43:19.265Z,8.76
2023-04-15T08:45:46.742Z,8.81
2023-04-15T08:48:16.892Z,8.75
2023-04-15T08:50:44.136Z,8.63
2023-04-15T08:53:15.617Z,8.82
2023-04-15T08:55:46.847Z,8.74
2023-04-15T08:58:14.408Z,8.75
2023-04-15T09:00:42.153Z,8.84
2023-04-15T09:03:09.724Z,8.77
2023-04-15T09:05:37.511Z,8.78
2023-04-15T09:08:05.489Z,8.72
2023-04-15T09:10:33.826Z,8.80
2023-04-15T09:13:02.063Z,8.74
2023-04-15T09:15:29.877Z,8.83
2023-04-15T09:17:57.169Z,8.94
2023-04-15T09:20:23.877Z,8.96
2023-04-15T09:22:51.967Z,9.25
2023-04-15T09:25:24.857Z,9.28
2023-04-15T09:27:53.685Z,9.46
2023-04-15T09:30:20.659Z,9.51
2023-04-15T09:32:58.700Z,9.53
2023-04-15T09:35:27.553Z,9.69
2023-04-15T09:38:02.330Z,9.75
2023-04-15T09:40:33.668Z,9.77
2023-04-15T09:43:02.067Z,9.73
2023-04-15T09:45:29.862Z,9.69
2023-04-15T09:50:22.096Z,9.65
2023-04-15T09:52:48.689Z,9.71
2023-04-15T09:55:16.058Z,9.72
2023-04-15T09:57:44.386Z,9.77
2023-04-15T10:00:11.510Z,9.76
2023-04-15T10:05:03.862Z,9.88
2023-04-15T10:07:30.844Z,9.88
2023-04-15T10:09:59.799Z,9.87
2023-04-15T10:12:27.260Z,10.03
2023-04-15T10:14:58.452Z,10.01
2023-04-15T10:19:55.683Z,10.12
2023-04-15T10:22:28.168Z,10.11
2023-04-15T10:24:56.367Z,10.21
2023-04-15T10:27:23.974Z,10.27
2023-04-15T10:29:54.505Z,10.25
2023-04-15T10:32:22.130Z,10.36
2023-04-15T10:34:51.408Z,10.37
2023-04-15T10:37:23.588Z,10.34
2023-04-15T10:39:52.253Z,10.27
2023-04-15T10:42:19.743Z,10.29
2023-04-15T10:44:51.891Z,10.33
2023-04-15T10:47:21.189Z,10.29
2023-04-15T10:50:05.600Z,10.41
2023-04-15T10:52:32.116Z,10.42
2023-04-15T10:55:10.748Z,10.46
2023-04-15T10:57:41.371Z,10.42
2023-04-15T11:00:14.933Z,10.41
2023-04-15T11:03:10.648Z,10.39
2023-04-15T11:05:43.293Z,10.44
2023-04-15T11:08:11.536Z,10.32
2023-04-15T11:10:37.963Z,10.40
2023-04-15T11:13:15.588Z,10.25
2023-04-15T11:15:47.231Z,10.26
2023-04-15T11:18:28.477Z,10.43
2023-04-15T11:21:07.094Z,10.59
2023-04-15T11:23:47.327Z,10.57
2023-04-15T11:26:14.030Z,10.70
2023-04-15T11:28:48.078Z,10.64
2023-04-15T11:31:19.916Z,10.70
2023-04-15T11:34:02.197Z,10.68
2023-04-15T11:36:30.197Z,10.63
2023-04-15T11:38:59.212Z,10.51
2023-04-15T11:41:25.958Z,10.35
2023-04-15T11:43:52.773Z,10.50
2023-04-15T11:46:32.036Z,10.45
2023-04-15T11:49:00.253Z,10.36
2023-04-15T11:54:33.433Z,10.09
2023-04-15T11:57:02.488Z,9.52
2023-04-15T11:59:45.318Z,9.68
2023-04-15T12:02:53.192Z,9.78
2023-04-15T12:05:37.991Z,9.35
2023-04-15T12:08:04.639Z,9.57
2023-04-15T12:10:34.878Z,9.66
2023-04-15T12:13:03.621Z,9.79
2023-04-15T12:15:33.325Z,9.77
2023-04-15T12:18:00.056Z,9.76
2023-04-15T12:20:28.343Z,9.64
2023-04-15T12:23:05.844Z,9.82
2023-04-15T12:25:35.704Z,9.92
2023-04-15T12:28:02.181Z,9.58
2023-04-15T12:30:49.843Z,9.83
2023-04-15T12:33:16.308Z,9.87
2023-04-15T12:35:42.847Z,9.77
2023-04-15T12:40:51.230Z,9.79
2023-04-15T12:48:41.424Z,9.75
2023-04-15T12:51:08.071Z,9.68
2023-04-15T12:53:34.563Z,9.64
2023-04-15T12:56:01.535Z,9.52
2023-04-15T12:58:28.436Z,9.57
2023-04-15T13:00:54.867Z,9.50
2023-04-15T13:03:21.504Z,9.50
2023-04-15T13:05:48.044Z,9.52
2023-04-15T13:08:14.577Z,9.52
2023-04-15T13:10:42.372Z,9.38
2023-04-15T13:13:09.045Z,9.28
2023-04-15T13:15:35.515Z,9.26
2023-04-15T13:18:02.123Z,9.25
2023-04-15T13:20:28.746Z,9.19
2023-04-15T13:22:55.235Z,9.09
2023-04-15T13:25:21.811Z,9.05
2023-04-15T13:27:48.232Z,9.01
2023-04-15T13:30:14.781Z,8.90
2023-04-15T13:32:41.267Z,9.01
2023-04-15T13:35:08.142Z,8.98
2023-04-15T13:37:34.732Z,8.99
2023-04-15T13:40:01.698Z,8.90
2023-04-15T13:42:28.143Z,8.86
2023-04-15T13:44:54.678Z,8.93
2023-04-15T13:47:21.376Z,8.91
2023-04-15T13:49:47.979Z,8.92
2023-04-15T13:52:14.696Z,8.85
2023-04-15T13:54:41.104Z,8.84
2023-04-15T13:57:07.835Z,8.82
2023-04-15T13:59:37.371Z,8.77
2023-04-15T14:02:04.212Z,8.78
2023-04-15T14:04:32.297Z,8.73
2023-04-15T14:06:59.011Z,8.76
2023-04-15T14:09:26.516Z,8.73
2023-04-15T14:11:54.414Z,8.62
2023-04-15T14:14:22.460Z,8.71
2023-04-15T14:16:49.011Z,8.66
2023-04-15T14:19:15.475Z,8.62
2023-04-15T14:21:42.065Z,8.52
2023-04-15T14:24:08.803Z,8.51
2023-04-15T14:26:35.433Z,8.44
2023-04-15T14:29:02.133Z,8.49
2023-04-15T14:31:28.723Z,8.50
2023-04-15T14:33:55.264Z,8.43
2023-04-15T14:36:21.800Z,8.47
2023-04-15T14:38:48.768Z,8.41
2023-04-15T14:41:16.245Z,8.39
2023-04-15T14:43:42.817Z,8.39
2023-04-15T14:46:10.768Z,8.33
2023-04-15T14:48:37.598Z,8.35
2023-04-15T14:51:04.242Z,8.22
2023-04-15T14:53:30.650Z,8.25
2023-04-15T14:55:57.261Z,8.35
2023-04-15T14:58:23.703Z,8.27
2023-04-15T15:00:50.284Z,8.19
2023-04-15T15:03:17.022Z,8.26
2023-04-15T15:05:46.311Z,8.24
2023-04-15T15:08:13.795Z,8.26
2023-04-15T15:10:49.247Z,8.24
2023-04-15T15:13:16.713Z,8.26
2023-04-15T15:15:43.210Z,8.23
2023-04-15T15:18:10.707Z,8.26
2023-04-15T15:20:37.263Z,8.19
2023-04-15T15:23:03.689Z,8.24
2023-04-15T15:25:30.350Z,8.13
2023-04-15T15:27:57.720Z,8.20
2023-04-15T15:30:24.382Z,8.21
2023-04-15T15:32:51.398Z,8.16
2023-04-15T15:35:17.989Z,8.11
2023-04-15T15:37:45.740Z,8.21
2023-04-15T15:40:12.619Z,8.21
2023-04-15T15:42:39.114Z,8.07
2023-04-15T15:45:08.251Z,8.06
2023-04-15T15:47:34.864Z,8.13
2023-04-15T15:50:06.052Z,8.14
2023-04-15T15:52:32.759Z,8.14
2023-04-15T15:54:59.316Z,8.09
2023-04-15T15:57:26.056Z,8.00
2023-04-15T16:00:02.014Z,8.08
2023-04-15T16:03:04.381Z,8.01
2023-04-15T16:05:24.339Z,8.10
2023-04-15T16:07:50.910Z,8.05
2023-04-15T16:10:17.406Z,8.11
2023-04-15T16:12:44.714Z,7.96
2023-04-15T16:15:12.362Z,8.11
2023-04-15T16:17:38.920Z,7.97
2023-04-15T16:20:06.399Z,7.93
2023-04-15T16:22:34.713Z,8.09
2023-04-15T16:25:02.083Z,8.03
2023-04-15T16:27:28.554Z,7.94
2023-04-15T16:29:55.008Z,8.05
2023-04-15T16:32:21.761Z,8.01
2023-04-15T16:34:48.447Z,8.04
2023-04-15T16:37:14.993Z,8.05
2023-04-15T16:39:41.601Z,8.09
2023-04-15T16:42:08.918Z,8.04
2023-04-15T16:44:35.386Z,8.18
2023-04-15T16:47:03.038Z,8.25
2023-04-15T16:49:30.027Z,8.22
2023-04-15T16:51:57.368Z,8.22
2023-04-15T16:54:23.882Z,8.19
2023-04-15T16:56:50.411Z,8.21
2023-04-15T16:59:17.046Z,8.24
2023-04-15T17:01:43.677Z,8.24
2023-04-15T17:04:10.424Z,8.14
2023-04-15T17:06:36.922Z,8.26
2023-04-15T17:09:03.641Z,8.17
2023-04-15T17:11:31.228Z,8.16
2023-04-15T17:13:57.747Z,8.18
2023-04-15T17:16:25.320Z,8.17
2023-04-15T17:18:51.929Z,8.21
2023-04-15T17:21:18.533Z,8.21
2023-04-15T17:23:45.116Z,8.17
2023-04-15T17:26:11.536Z,8.20
2023-04-15T17:28:38.004Z,8.17
2023-04-15T17:31:05.056Z,8.14
2023-04-15T17:33:59.168Z,8.16
2023-04-15T17:36:18.220Z,8.20
2023-04-15T17:38:45.510Z,8.15
2023-04-15T17:41:12.132Z,7.98
2023-04-15T17:43:38.595Z,8.13
2023-04-15T17:46:07.154Z,8.08
2023-04-15T17:48:34.406Z,8.15
2023-04-15T17:51:00.858Z,8.10
2023-04-15T17:53:27.317Z,8.18
2023-04-15T17:55:53.813Z,8.00
2023-04-15T17:58:20.410Z,8.10
2023-04-15T18:00:47.497Z,8.02
2023-04-15T18:03:14.329Z,8.00
2023-04-15T18:05:42.650Z,8.04
2023-04-15T18:08:09.496Z,7.77
2023-04-15T18:10:36.781Z,8.11
2023-04-15T18:13:03.450Z,8.10
2023-04-15T18:15:31.224Z,8.08
2023-04-15T18:18:00.542Z,8.02
2023-04-15T18:20:27.862Z,8.02
2023-04-15T18:22:54.444Z,8.01
2023-04-15T18:25:20.988Z,7.99
2023-04-15T18:27:48.565Z,8.04
2023-04-15T18:30:15.012Z,8.03
2023-04-15T18:32:41.549Z,8.07
2023-04-15T18:35:08.486Z,7.97
2023-04-15T18:37:35.396Z,7.93
2023-04-15T18:40:02.091Z,7.89
2023-04-15T18:42:29.034Z,7.96
2023-04-15T18:44:55.532Z,7.98
2023-04-15T18:47:22.121Z,7.98
2023-04-15T18:49:48.670Z,8.00
2023-04-15T18:52:15.099Z,7.96
2023-04-15T18:54:41.537Z,8.08
2023-04-15T18:57:08.014Z,8.04
2023-04-15T18:59:34.729Z,8.09
2023-04-15T19:02:03.521Z,7.92
2023-04-15T19:04:30.065Z,7.99
2023-04-15T19:06:56.983Z,7.99
2023-04-15T19:09:23.694Z,7.95
2023-04-15T19:11:52.232Z,7.98
2023-04-15T19:14:18.661Z,8.04
2023-04-15T19:16:45.147Z,7.98
2023-04-15T19:19:14.524Z,7.96
2023-04-15T19:21:41.555Z,7.98
2023-04-15T19:24:08.609Z,7.93
2023-04-15T19:26:36.957Z,7.84
2023-04-15T19:29:05.056Z,7.97
2023-04-15T19:31:31.817Z,7.96
2023-04-15T19:33:58.273Z,8.03
2023-04-15T19:36:25.334Z,7.99
2023-04-15T19:38:51.848Z,7.85
2023-04-15T19:41:18.262Z,7.98
2023-04-15T19:43:44.753Z,7.89
2023-04-15T19:46:13.191Z,7.88
2023-04-15T19:48:40.351Z,7.97
2023-04-15T19:51:06.860Z,7.94
2023-04-15T19:53:33.534Z,7.92
2023-04-15T19:56:00.358Z,7.79
2023-04-15T19:58:26.831Z,7.92
2023-04-15T20:00:53.513Z,7.90
2023-04-15T20:03:20.519Z,7.89
2023-04-15T20:05:47.272Z,7.87
2023-04-15T20:08:13.704Z,7.93
2023-04-15T20:10:40.176Z,7.87
2023-04-15T20:13:06.644Z,7.90
2023-04-15T20:15:33.141Z,7.84
2023-04-15T20:17:59.610Z,7.90
2023-04-15T20:20:26.325Z,7.90
2023-04-15T20:22:53.110Z,7.90
2023-04-15T20:25:19.729Z,7.91
2023-04-15T20:27:47.592Z,7.87
2023-04-15T20:30:14.151Z,7.94
2023-04-15T20:32:40.762Z,7.93
2023-04-15T20:35:07.687Z,7.91
2023-04-15T20:37:37.698Z,7.90
2023-04-15T20:40:07.445Z,7.74
2023-04-15T20:42:34.496Z,7.76
2023-04-15T20:45:01.964Z,7.78
2023-04-15T20:47:28.558Z,7.89
2023-04-15T20:49:55.427Z,7.77
2023-04-15T20:52:21.889Z,7.85
2023-04-15T20:54:48.472Z,7.89
2023-04-15T20:57:14.973Z,7.81
2023-04-15T20:59:41.358Z,7.82
2023-04-15T21:02:07.978Z,7.73
2023-04-15T21:04:34.513Z,7.81
2023-04-15T21:07:00.950Z,7.83
2023-04-15T21:09:27.465Z,7.77
2023-04-15T21:12:01.159Z,7.74
2023-04-15T21:14:28.631Z,7.59
2023-04-15T21:16:56.586Z,7.73
2023-04-15T21:19:23.247Z,7.70
2023-04-15T21:21:49.701Z,7.65
2023-04-15T21:24:16.170Z,7.73
2023-04-15T21:26:42.611Z,7.83
2023-04-15T21:29:11.455Z,7.77
2023-04-15T21:31:38.523Z,7.79
2023-04-15T21:34:05.405Z,7.86
2023-04-15T21:36:32.174Z,7.90
2023-04-15T21:38:58.786Z,7.91
2023-04-15T21:41:25.794Z,7.83
2023-04-15T21:43:52.783Z,7.79
2023-04-15T21:46:22.088Z,7.86
2023-04-15T21:48:50.506Z,7.85
2023-04-15T21:51:17.012Z,7.88
2023-04-15T21:53:43.447Z,7.90
2023-04-15T21:56:10.059Z,7.74
2023-04-15T21:58:36.785Z,7.91
2023-04-15T22:01:04.667Z,7.78
2023-04-15T22:03:34.977Z,7.89
2023-04-15T22:06:03.235Z,7.85
2023-04-15T22:08:36.076Z,7.88
2023-04-15T22:11:08.732Z,7.84
2023-04-15T22:13:35.472Z,7.88
2023-04-15T22:16:02.452Z,7.85
2023-04-15T22:18:28.897Z,7.86
2023-04-15T22:20:56.212Z,7.84
2023-04-15T22:23:22.710Z,7.90
2023-04-15T22:25:49.139Z,7.88
2023-04-15T22:28:15.541Z,7.86
2023-04-15T22:30:42.322Z,7.92
2023-04-15T22:33:09.906Z,7.84
2023-04-15T22:35:37.421Z,7.92
2023-04-15T22:38:04.947Z,7.91
2023-04-15T22:40:31.559Z,7.92
2023-04-15T22:42:58.081Z,7.86
2023-04-15T22:45:24.531Z,7.92
2023-04-15T22:47:51.076Z,7.92
2023-04-15T22:50:17.760Z,7.83
2023-04-15T22:52:46.175Z,7.89
2023-04-15T22:55:13.075Z,7.87
2023-04-15T22:57:39.738Z,7.87
2023-04-15T23:00:07.365Z,7.86
2023-04-15T23:02:34.782Z,7.94
2023-04-15T23:05:01.784Z,7.96
2023-04-15T23:07:39.281Z,7.81
2023-04-15T23:10:06.491Z,7.84
2023-04-15T23:12:32.909Z,7.79
2023-04-15T23:14:59.310Z,7.75
2023-04-15T23:17:26.707Z,7.87
2023-04-15T23:19:53.205Z,7.77
2023-04-15T23:22:19.685Z,7.72
2023-04-15T23:24:46.241Z,7.89
2023-04-15T23:27:12.711Z,7.90
2023-04-15T23:29:39.163Z,7.92
2023-04-15T23:32:06.127Z,7.90
2023-04-15T23:34:32.630Z,7.79
2023-04-15T23:36:59.053Z,7.77
2023-04-15T23:39:25.654Z,7.87
2023-04-15T23:41:52.561Z,7.85
2023-04-15T23:44:19.048Z,7.87
2023-04-15T23:46:45.774Z,7.93
2023-04-15T23:49:12.501Z,7.88
2023-04-15T23:51:39.207Z,7.87
2023-04-15T23:54:05.769Z,7.69
2023-04-15T23:56:32.248Z,7.88
2023-04-15T23:58:58.659Z,7.87
